Home page

Saison 2017
Calendrier            Classements    C   Règlement

Historique
L'histoire    Classements
Divers
Les pilotes    Galerie photos    Liens


Course de côte de GrandCourt (4 / 8 / 2002)

Place Pilote Voiture Gr. / Cl. Temps      
1 BIDONET FRANCIS (B) DALLARA 392 DE 21 1:34.33 0:46.83 0:49.62 0:47.50
2 TROMP ROLAND (F) DUQUINE F2 IMSA DE 18 1:35.23 0:48.06 0:50.09 0:47.17
3 WURTH SYLVAIN (F) MARTINI MK58 DE 19 1:35.85 0:47.45 0:52.07 0:48.40
4 LINDEN LEON (L) REYNARD 933 DE 21 1:36.58 0:47.85 0:52.47 0:48.73
5 BUCHEM ALFRED (B) REYNARD 88D DE 20 1:36.71 1:01.66 0:49.63 0:47.08
6 SAINTMARD GILLES (B) RALT RT 35 DE 21 1:37.08 0:48.14 0:52.82 0:48.94
7 FUSILLER PHILIPPE (F) DALLARA 396 DE 21 1:40.69 0:48.34 0:54.60 0:52.35
8 SCHILDKNECHT JEAN MICHEL (F) MARTINI MK20 DE 18 1:42.72 0:50.74 0:55.00 0:51.98
9 MICHAUX VINCENT (B) EXESS FURIA EX 23 1:43.35 0:51.31 0:56.92 0:52.04
10 GILLES FRANCIS (B) FORD RS COSWORTH A 8 1:44.93 0:52.31 0:55.99 0:52.62
11 ROLLINGHOFF PETER (D) BMW M3 EVO BS 12 1:45.54 0:52.03 1:00.52 0:53.51
12 DAMIENS NOEL (F) MARTINI MK32 DE 17 1:47.68 0:54.23 0:58.82 0:53.45
13 STEPHANY GUY (L) BMW M3 A 8 1:47.69 0:53.56 0:57.30 0:54.13
14 WEYTEN WILLY (B) HEMA ZX C 14 1:50.24 0:55.15 0:59.26 0:55.09
15 FEILNER YVES (B) RENAULT CLIO WILLIAMS A 7 1:51.15 0:55.10 0:58.50 0:56.05
16 VOIRIN PASCAL (F) FORD ESCORT COSWORTH A 8 1:51.77 0:55.91 0:59.60 0:55.86
17 WATTEYNE CLAUDE (B) DALLARA F2 TURBO DE 20 1:52.58 1:00.60 0:51.98 1:05.86
18 JOCKIN ROGER (B) PORSCHE 996 GT3 BS 13 1:54.42 0:56.62 0:58.44 0:57.80
19 GOEZ RENE (B) MARTINI DE 17 1:54.44 0:56.24 1:03.91 0:58.20
20 JANIN JANICK (F) MARTINI MK69 DE 18 1:55.13 0:54.44 1:11.71 1:00.69
21 EGON ERIC (F) CLIO WILLIAMS N 3 1:55.85 0:57.10 1:01.83 0:58.75
22 VITALI HUGO (L) REYNARD 903 DE 19 1:56.27 1:03.03 1:00.69 0:55.58
23 SOUVIGNE MIKE (L) HONDA TYPE R N 3 1:56.41 0:58.35 1:02.68 0:58.06
24 AMAOUZ ROLAND (B) RENAULT 5 GT TURBO N 4 1:57.38 0:58.42 1:02.91 0:58.96
25 ROBERT JEAN NOEL (B) PEUGEOT 306 N 3 1:59.98 0:59.84 1:02.37 1:00.14
26 BULTHUIS JEAN-LOUIS (B) RENAULT 5 GT TURBO N 4 2:00.02 0:59.00 1:03.86 1:01.02
27 ALLAIS DANIEL (F) LOTUS EX 23 2:02.38 0:57.48 1:04.90 *
28 DEWACHTER PHILIPPE (B) ALFA ROMEO 175 N 4 2:02.42 1:00.57 1:05.35 1:01.85
29 HEISCHBOURG STEVE (L) PEUGEOT 106 GTI N 2 2:03.27 1:03.68 1:29.73 0:59.59
30 ARENDT JEAN-LUC (D) RENAULT CLIO A 7 2:03.50 1:01.27 1:07.09 1:02.23
31 TROLL (L) HONDA CIVIC A 6 2:03.89 1:00.97 1:04.98 1:02.92
32 DURIEU DENIS (B) VW GOLF 16V N 3 2:04.34 1:01.71 1:06.42 1:02.63
33 KLEIN MIKE (L) HONDA CIVIC A 6 2:04.58 1:02.29 1:03.51 1:02.29
34 REDING GUY (L) BMW M3 N 4 2:04.64 1:01.55 1:09.50 1:03.09
35 EICKMANN NICOLAS (L) HONDA CIVIC A 6 2:06.50 1:03.06 1:06.38 1:03.44
36 BACHELIN RENE (F) MARTINI DE 17 2:07.48 1:02.97 1:08.95 1:04.51
37 KUBORN KUC (L) HONDA CIVIC A 6 2:08.96 1:02.14 2:15.25 1:06.82
38 HANSENNE ALBERT (B) CAIMAN MONO DE 18 2:12.33 1:05.14 1:09.90 1:07.19
39 VANDERZEYPEN FRANCIS (B) SIMCA RALLYE 2 BS 9 2:13.52 1:06.67 1:10.88 1:06.85
40 HEIJERS DOMINIQUE (B) VW POLO A 5 2:24.00 1:14.16 1:09.84 1:15.14
41 GIBSON IAN PHILIP (GB) LOTUS FF1600 DE 18 2:32.31 1:15.84 1:24.07 1:16.47
NON CLASSES
JEAN SCHMITS (B) RALT F3000 DE 22 Meilleure montée d'entraînement : 0:43.90
SERGE BAIWIR (B) MARTINI MK74 DE 20 Meilleure montée d'entraînement : 0:44.18
RAYMOND SCHINKUS (B) OPEL LOTUS DE 19 Meilleure montée d'entraînement : 0:48.27